sensor_id;sensor_type;location;lat;lon;timestamp;P1;durP1;ratioP1;P2;durP2;ratioP2
72261;SDS011;60173;52.112;8.648;2023-03-23T00:01:54;8.98;;;4.18;;
72261;SDS011;60173;52.112;8.648;2023-03-23T00:04:20;6.95;;;3.97;;
72261;SDS011;60173;52.112;8.648;2023-03-23T00:06:45;8.32;;;4.22;;
72261;SDS011;60173;52.112;8.648;2023-03-23T00:09:11;10.35;;;4.32;;
72261;SDS011;60173;52.112;8.648;2023-03-23T00:11:38;11.02;;;4.95;;
72261;SDS011;60173;52.112;8.648;2023-03-23T00:14:03;8.13;;;4.68;;
72261;SDS011;60173;52.112;8.648;2023-03-23T00:16:29;7.35;;;4.13;;
72261;SDS011;60173;52.112;8.648;2023-03-23T00:19:02;8.68;;;4.65;;
72261;SDS011;60173;52.112;8.648;2023-03-23T00:21:30;8.73;;;4.78;;
72261;SDS011;60173;52.112;8.648;2023-03-23T00:23:58;9.88;;;4.90;;
72261;SDS011;60173;52.112;8.648;2023-03-23T00:26:25;9.73;;;5.13;;
72261;SDS011;60173;52.112;8.648;2023-03-23T00:28:50;9.38;;;4.70;;
72261;SDS011;60173;52.112;8.648;2023-03-23T00:31:15;10.68;;;4.90;;
72261;SDS011;60173;52.112;8.648;2023-03-23T00:33:40;13.13;;;4.95;;
72261;SDS011;60173;52.112;8.648;2023-03-23T00:36:06;7.80;;;4.72;;
72261;SDS011;60173;52.112;8.648;2023-03-23T00:38:34;8.93;;;4.43;;
72261;SDS011;60173;52.112;8.648;2023-03-23T00:41:00;8.98;;;5.10;;
72261;SDS011;60173;52.112;8.648;2023-03-23T00:43:25;9.05;;;4.47;;
72261;SDS011;60173;52.112;8.648;2023-03-23T00:45:50;6.93;;;4.88;;
72261;SDS011;60173;52.112;8.648;2023-03-23T00:48:16;10.57;;;5.00;;
72261;SDS011;60173;52.112;8.648;2023-03-23T00:50:41;10.52;;;4.85;;
72261;SDS011;60173;52.112;8.648;2023-03-23T00:53:06;7.47;;;4.85;;
72261;SDS011;60173;52.112;8.648;2023-03-23T00:55:32;9.20;;;5.00;;
72261;SDS011;60173;52.112;8.648;2023-03-23T00:57:57;9.77;;;5.30;;
72261;SDS011;60173;52.112;8.648;2023-03-23T01:00:23;9.10;;;5.25;;
72261;SDS011;60173;52.112;8.648;2023-03-23T01:02:48;8.63;;;5.07;;
72261;SDS011;60173;52.112;8.648;2023-03-23T01:05:14;9.38;;;5.00;;
72261;SDS011;60173;52.112;8.648;2023-03-23T01:07:39;10.25;;;5.28;;
72261;SDS011;60173;52.112;8.648;2023-03-23T01:10:04;9.57;;;4.75;;
72261;SDS011;60173;52.112;8.648;2023-03-23T01:12:30;10.23;;;5.07;;
72261;SDS011;60173;52.112;8.648;2023-03-23T01:14:55;8.40;;;4.47;;
72261;SDS011;60173;52.112;8.648;2023-03-23T01:17:21;8.77;;;4.95;;
72261;SDS011;60173;52.112;8.648;2023-03-23T01:19:46;7.75;;;4.53;;
72261;SDS011;60173;52.112;8.648;2023-03-23T01:22:11;9.27;;;4.60;;
72261;SDS011;60173;52.112;8.648;2023-03-23T01:24:37;9.18;;;4.82;;
72261;SDS011;60173;52.112;8.648;2023-03-23T01:27:02;8.30;;;4.32;;
72261;SDS011;60173;52.112;8.648;2023-03-23T01:29:28;7.68;;;4.47;;
72261;SDS011;60173;52.112;8.648;2023-03-23T01:31:53;7.75;;;4.00;;
72261;SDS011;60173;52.112;8.648;2023-03-23T01:34:18;9.00;;;4.40;;
72261;SDS011;60173;52.112;8.648;2023-03-23T01:36:43;9.23;;;4.47;;
72261;SDS011;60173;52.112;8.648;2023-03-23T01:39:09;7.15;;;3.70;;
72261;SDS011;60173;52.112;8.648;2023-03-23T01:41:34;10.30;;;4.25;;
72261;SDS011;60173;52.112;8.648;2023-03-23T01:44:02;6.43;;;3.90;;
72261;SDS011;60173;52.112;8.648;2023-03-23T01:46:30;7.03;;;4.18;;
72261;SDS011;60173;52.112;8.648;2023-03-23T01:48:58;9.05;;;4.38;;
72261;SDS011;60173;52.112;8.648;2023-03-23T01:51:27;8.10;;;4.38;;
72261;SDS011;60173;52.112;8.648;2023-03-23T01:53:57;11.27;;;4.63;;
72261;SDS011;60173;52.112;8.648;2023-03-23T01:56:26;6.97;;;3.95;;
72261;SDS011;60173;52.112;8.648;2023-03-23T01:58:57;5.20;;;3.80;;
72261;SDS011;60173;52.112;8.648;2023-03-23T02:01:22;9.82;;;4.22;;
72261;SDS011;60173;52.112;8.648;2023-03-23T02:03:48;8.30;;;3.60;;
72261;SDS011;60173;52.112;8.648;2023-03-23T02:06:13;7.15;;;4.10;;
72261;SDS011;60173;52.112;8.648;2023-03-23T02:08:40;8.98;;;3.90;;
72261;SDS011;60173;52.112;8.648;2023-03-23T02:11:15;6.22;;;3.25;;
72261;SDS011;60173;52.112;8.648;2023-03-23T02:13:42;6.75;;;3.72;;
72261;SDS011;60173;52.112;8.648;2023-03-23T02:16:14;6.80;;;3.45;;
72261;SDS011;60173;52.112;8.648;2023-03-23T02:22:10;7.05;;;3.00;;
72261;SDS011;60173;52.112;8.648;2023-03-23T02:25:19;5.32;;;3.05;;
72261;SDS011;60173;52.112;8.648;2023-03-23T02:28:15;5.20;;;2.97;;
72261;SDS011;60173;52.112;8.648;2023-03-23T02:36:38;4.85;;;3.17;;
72261;SDS011;60173;52.112;8.648;2023-03-23T02:41:50;7.43;;;3.58;;
72261;SDS011;60173;52.112;8.648;2023-03-23T02:44:19;7.88;;;3.40;;
72261;SDS011;60173;52.112;8.648;2023-03-23T02:46:46;5.68;;;3.78;;
72261;SDS011;60173;52.112;8.648;2023-03-23T02:49:13;8.38;;;2.97;;
72261;SDS011;60173;52.112;8.648;2023-03-23T02:51:41;9.50;;;2.80;;
72261;SDS011;60173;52.112;8.648;2023-03-23T02:54:10;5.50;;;3.08;;
72261;SDS011;60173;52.112;8.648;2023-03-23T02:56:37;7.18;;;3.28;;
72261;SDS011;60173;52.112;8.648;2023-03-23T02:59:04;6.65;;;3.15;;
72261;SDS011;60173;52.112;8.648;2023-03-23T03:03:55;4.70;;;3.08;;
72261;SDS011;60173;52.112;8.648;2023-03-23T03:06:26;7.22;;;3.17;;
72261;SDS011;60173;52.112;8.648;2023-03-23T03:11:39;4.55;;;2.97;;
72261;SDS011;60173;52.112;8.648;2023-03-23T03:14:13;6.63;;;2.70;;
72261;SDS011;60173;52.112;8.648;2023-03-23T03:16:57;4.72;;;2.47;;
72261;SDS011;60173;52.112;8.648;2023-03-23T03:21:56;5.25;;;2.78;;
72261;SDS011;60173;52.112;8.648;2023-03-23T03:24:23;3.90;;;2.65;;
72261;SDS011;60173;52.112;8.648;2023-03-23T03:26:52;5.07;;;2.45;;
72261;SDS011;60173;52.112;8.648;2023-03-23T03:29:38;4.88;;;2.20;;
72261;SDS011;60173;52.112;8.648;2023-03-23T03:32:05;5.03;;;2.35;;
72261;SDS011;60173;52.112;8.648;2023-03-23T03:34:33;3.60;;;2.30;;
72261;SDS011;60173;52.112;8.648;2023-03-23T03:36:58;4.63;;;2.33;;
72261;SDS011;60173;52.112;8.648;2023-03-23T03:39:24;4.07;;;2.20;;
72261;SDS011;60173;52.112;8.648;2023-03-23T03:41:51;5.97;;;2.15;;
72261;SDS011;60173;52.112;8.648;2023-03-23T03:44:17;4.72;;;2.20;;
72261;SDS011;60173;52.112;8.648;2023-03-23T03:46:42;4.93;;;2.72;;
72261;SDS011;60173;52.112;8.648;2023-03-23T03:49:08;3.58;;;2.25;;
72261;SDS011;60173;52.112;8.648;2023-03-23T03:51:35;5.05;;;2.40;;
72261;SDS011;60173;52.112;8.648;2023-03-23T03:54:00;4.13;;;2.20;;
72261;SDS011;60173;52.112;8.648;2023-03-23T03:56:26;6.22;;;2.50;;
72261;SDS011;60173;52.112;8.648;2023-03-23T03:58:51;5.82;;;2.38;;
72261;SDS011;60173;52.112;8.648;2023-03-23T04:01:18;3.95;;;1.98;;
72261;SDS011;60173;52.112;8.648;2023-03-23T04:03:44;5.07;;;2.45;;
72261;SDS011;60173;52.112;8.648;2023-03-23T04:06:11;10.48;;;3.05;;
72261;SDS011;60173;52.112;8.648;2023-03-23T04:08:36;3.10;;;2.20;;
72261;SDS011;60173;52.112;8.648;2023-03-23T04:11:01;5.15;;;2.40;;
72261;SDS011;60173;52.112;8.648;2023-03-23T04:13:27;4.60;;;2.40;;
72261;SDS011;60173;52.112;8.648;2023-03-23T04:15:52;4.57;;;2.30;;
72261;SDS011;60173;52.112;8.648;2023-03-23T04:18:17;4.20;;;2.05;;
72261;SDS011;60173;52.112;8.648;2023-03-23T04:20:44;3.22;;;2.00;;
72261;SDS011;60173;52.112;8.648;2023-03-23T04:23:10;4.00;;;2.42;;
72261;SDS011;60173;52.112;8.648;2023-03-23T04:25:36;7.97;;;2.25;;
72261;SDS011;60173;52.112;8.648;2023-03-23T04:28:01;3.97;;;2.40;;
72261;SDS011;60173;52.112;8.648;2023-03-23T04:30:27;4.85;;;2.33;;
72261;SDS011;60173;52.112;8.648;2023-03-23T04:32:53;3.72;;;1.90;;
72261;SDS011;60173;52.112;8.648;2023-03-23T04:35:19;4.80;;;2.38;;
72261;SDS011;60173;52.112;8.648;2023-03-23T04:37:45;6.35;;;2.53;;
72261;SDS011;60173;52.112;8.648;2023-03-23T04:40:11;5.10;;;2.17;;
72261;SDS011;60173;52.112;8.648;2023-03-23T04:42:38;2.88;;;2.00;;
72261;SDS011;60173;52.112;8.648;2023-03-23T04:45:04;3.25;;;2.15;;
72261;SDS011;60173;52.112;8.648;2023-03-23T04:47:32;6.00;;;2.13;;
72261;SDS011;60173;52.112;8.648;2023-03-23T04:50:00;4.43;;;2.17;;
72261;SDS011;60173;52.112;8.648;2023-03-23T04:52:25;4.53;;;1.98;;
72261;SDS011;60173;52.112;8.648;2023-03-23T04:54:51;2.45;;;1.88;;
72261;SDS011;60173;52.112;8.648;2023-03-23T04:57:16;2.90;;;1.88;;
72261;SDS011;60173;52.112;8.648;2023-03-23T04:59:42;3.72;;;1.70;;
72261;SDS011;60173;52.112;8.648;2023-03-23T05:02:08;4.20;;;2.20;;
72261;SDS011;60173;52.112;8.648;2023-03-23T05:04:33;3.42;;;1.92;;
72261;SDS011;60173;52.112;8.648;2023-03-23T05:06:58;2.70;;;1.90;;
72261;SDS011;60173;52.112;8.648;2023-03-23T05:09:24;2.78;;;1.95;;
72261;SDS011;60173;52.112;8.648;2023-03-23T05:11:49;3.35;;;1.70;;
72261;SDS011;60173;52.112;8.648;2023-03-23T05:14:14;5.25;;;2.03;;
72261;SDS011;60173;52.112;8.648;2023-03-23T05:16:39;6.40;;;2.00;;
72261;SDS011;60173;52.112;8.648;2023-03-23T05:19:05;3.78;;;2.05;;
72261;SDS011;60173;52.112;8.648;2023-03-23T05:21:30;3.63;;;2.00;;
72261;SDS011;60173;52.112;8.648;2023-03-23T05:23:56;3.22;;;2.03;;
72261;SDS011;60173;52.112;8.648;2023-03-23T05:26:22;4.18;;;1.75;;
72261;SDS011;60173;52.112;8.648;2023-03-23T05:28:47;2.10;;;1.73;;
72261;SDS011;60173;52.112;8.648;2023-03-23T05:31:13;2.42;;;1.98;;
72261;SDS011;60173;52.112;8.648;2023-03-23T05:33:38;3.50;;;2.03;;
72261;SDS011;60173;52.112;8.648;2023-03-23T05:36:03;3.63;;;1.98;;
72261;SDS011;60173;52.112;8.648;2023-03-23T05:38:29;3.92;;;2.00;;
72261;SDS011;60173;52.112;8.648;2023-03-23T05:40:57;3.20;;;1.73;;
72261;SDS011;60173;52.112;8.648;2023-03-23T05:43:23;3.70;;;1.70;;
72261;SDS011;60173;52.112;8.648;2023-03-23T05:45:49;3.88;;;1.92;;
72261;SDS011;60173;52.112;8.648;2023-03-23T05:48:14;3.47;;;1.88;;
72261;SDS011;60173;52.112;8.648;2023-03-23T05:50:39;3.22;;;1.83;;
72261;SDS011;60173;52.112;8.648;2023-03-23T05:53:04;3.00;;;1.90;;
72261;SDS011;60173;52.112;8.648;2023-03-23T05:55:30;2.28;;;1.70;;
72261;SDS011;60173;52.112;8.648;2023-03-23T05:57:55;3.72;;;2.00;;
72261;SDS011;60173;52.112;8.648;2023-03-23T06:00:20;3.58;;;1.70;;
72261;SDS011;60173;52.112;8.648;2023-03-23T06:02:47;5.10;;;2.08;;
72261;SDS011;60173;52.112;8.648;2023-03-23T06:05:12;3.42;;;1.70;;
72261;SDS011;60173;52.112;8.648;2023-03-23T06:07:38;3.65;;;2.10;;
72261;SDS011;60173;52.112;8.648;2023-03-23T06:10:06;2.75;;;2.00;;
72261;SDS011;60173;52.112;8.648;2023-03-23T06:12:32;2.00;;;1.80;;
72261;SDS011;60173;52.112;8.648;2023-03-23T06:14:57;2.97;;;2.10;;
72261;SDS011;60173;52.112;8.648;2023-03-23T06:17:22;3.88;;;1.70;;
72261;SDS011;60173;52.112;8.648;2023-03-23T06:19:48;3.15;;;2.03;;
72261;SDS011;60173;52.112;8.648;2023-03-23T06:22:13;2.63;;;1.92;;
72261;SDS011;60173;52.112;8.648;2023-03-23T06:24:38;2.58;;;1.90;;
72261;SDS011;60173;52.112;8.648;2023-03-23T06:27:04;4.13;;;2.10;;
72261;SDS011;60173;52.112;8.648;2023-03-23T06:29:29;4.80;;;1.98;;
72261;SDS011;60173;52.112;8.648;2023-03-23T06:31:56;4.00;;;2.15;;
72261;SDS011;60173;52.112;8.648;2023-03-23T06:34:25;3.15;;;1.98;;
72261;SDS011;60173;52.112;8.648;2023-03-23T06:36:51;2.67;;;1.92;;
72261;SDS011;60173;52.112;8.648;2023-03-23T06:39:16;3.47;;;2.20;;
72261;SDS011;60173;52.112;8.648;2023-03-23T06:41:41;4.05;;;1.95;;
72261;SDS011;60173;52.112;8.648;2023-03-23T06:44:06;3.38;;;2.10;;
72261;SDS011;60173;52.112;8.648;2023-03-23T06:46:32;3.55;;;2.20;;
72261;SDS011;60173;52.112;8.648;2023-03-23T06:48:57;5.53;;;2.38;;
72261;SDS011;60173;52.112;8.648;2023-03-23T06:51:23;6.55;;;2.63;;
72261;SDS011;60173;52.112;8.648;2023-03-23T06:53:48;4.78;;;2.38;;
72261;SDS011;60173;52.112;8.648;2023-03-23T06:56:14;5.03;;;2.00;;
72261;SDS011;60173;52.112;8.648;2023-03-23T06:58:39;3.22;;;2.08;;
72261;SDS011;60173;52.112;8.648;2023-03-23T07:01:05;5.28;;;2.28;;
72261;SDS011;60173;52.112;8.648;2023-03-23T07:03:30;4.97;;;2.22;;
72261;SDS011;60173;52.112;8.648;2023-03-23T07:05:56;3.33;;;2.17;;
72261;SDS011;60173;52.112;8.648;2023-03-23T07:08:21;5.95;;;2.20;;
72261;SDS011;60173;52.112;8.648;2023-03-23T07:10:47;3.30;;;2.15;;
72261;SDS011;60173;52.112;8.648;2023-03-23T07:13:16;4.75;;;2.30;;
72261;SDS011;60173;52.112;8.648;2023-03-23T07:15:41;3.13;;;2.30;;
72261;SDS011;60173;52.112;8.648;2023-03-23T07:18:06;5.75;;;2.22;;
72261;SDS011;60173;52.112;8.648;2023-03-23T07:20:32;3.15;;;2.05;;
72261;SDS011;60173;52.112;8.648;2023-03-23T07:22:57;4.70;;;2.05;;
72261;SDS011;60173;52.112;8.648;2023-03-23T07:25:22;4.32;;;2.33;;
72261;SDS011;60173;52.112;8.648;2023-03-23T07:27:47;7.00;;;2.45;;
72261;SDS011;60173;52.112;8.648;2023-03-23T07:30:13;4.07;;;2.40;;
72261;SDS011;60173;52.112;8.648;2023-03-23T07:32:38;5.57;;;2.10;;
72261;SDS011;60173;52.112;8.648;2023-03-23T07:35:04;5.47;;;2.55;;
72261;SDS011;60173;52.112;8.648;2023-03-23T07:37:29;4.05;;;2.35;;
72261;SDS011;60173;52.112;8.648;2023-03-23T07:39:55;6.85;;;2.60;;
72261;SDS011;60173;52.112;8.648;2023-03-23T07:42:20;4.57;;;2.42;;
72261;SDS011;60173;52.112;8.648;2023-03-23T07:44:46;4.38;;;2.40;;
72261;SDS011;60173;52.112;8.648;2023-03-23T07:47:11;3.25;;;2.05;;
72261;SDS011;60173;52.112;8.648;2023-03-23T07:49:36;6.45;;;2.33;;
72261;SDS011;60173;52.112;8.648;2023-03-23T07:52:01;4.25;;;2.53;;
72261;SDS011;60173;52.112;8.648;2023-03-23T07:54:27;5.95;;;2.67;;
72261;SDS011;60173;52.112;8.648;2023-03-23T07:56:52;5.18;;;2.28;;
72261;SDS011;60173;52.112;8.648;2023-03-23T07:59:17;5.78;;;2.60;;
72261;SDS011;60173;52.112;8.648;2023-03-23T08:01:43;5.75;;;2.20;;
72261;SDS011;60173;52.112;8.648;2023-03-23T08:04:08;4.28;;;2.38;;
72261;SDS011;60173;52.112;8.648;2023-03-23T08:06:33;6.35;;;3.00;;
72261;SDS011;60173;52.112;8.648;2023-03-23T08:08:59;3.50;;;2.30;;
72261;SDS011;60173;52.112;8.648;2023-03-23T08:11:25;5.78;;;2.47;;
72261;SDS011;60173;52.112;8.648;2023-03-23T08:13:51;4.25;;;2.53;;
72261;SDS011;60173;52.112;8.648;2023-03-23T08:16:17;4.88;;;2.80;;
72261;SDS011;60173;52.112;8.648;2023-03-23T08:18:42;5.25;;;2.65;;
72261;SDS011;60173;52.112;8.648;2023-03-23T08:21:08;4.88;;;2.47;;
72261;SDS011;60173;52.112;8.648;2023-03-23T08:23:33;6.45;;;2.50;;
72261;SDS011;60173;52.112;8.648;2023-03-23T08:25:59;8.73;;;2.53;;
72261;SDS011;60173;52.112;8.648;2023-03-23T08:28:24;7.63;;;2.97;;
72261;SDS011;60173;52.112;8.648;2023-03-23T08:30:49;6.68;;;2.92;;
72261;SDS011;60173;52.112;8.648;2023-03-23T08:33:15;4.47;;;2.55;;
72261;SDS011;60173;52.112;8.648;2023-03-23T08:35:40;5.38;;;2.40;;
72261;SDS011;60173;52.112;8.648;2023-03-23T08:38:06;6.78;;;2.40;;
72261;SDS011;60173;52.112;8.648;2023-03-23T08:40:31;8.23;;;2.60;;
72261;SDS011;60173;52.112;8.648;2023-03-23T08:42:57;4.03;;;2.50;;
72261;SDS011;60173;52.112;8.648;2023-03-23T08:45:23;5.82;;;2.80;;
72261;SDS011;60173;52.112;8.648;2023-03-23T08:47:49;6.20;;;2.47;;
72261;SDS011;60173;52.112;8.648;2023-03-23T08:50:15;4.22;;;2.72;;
72261;SDS011;60173;52.112;8.648;2023-03-23T08:52:41;6.32;;;2.70;;
72261;SDS011;60173;52.112;8.648;2023-03-23T08:55:07;8.05;;;2.67;;
72261;SDS011;60173;52.112;8.648;2023-03-23T08:57:32;9.13;;;2.80;;
72261;SDS011;60173;52.112;8.648;2023-03-23T08:59:58;8.48;;;3.05;;
72261;SDS011;60173;52.112;8.648;2023-03-23T09:02:23;7.72;;;2.40;;
72261;SDS011;60173;52.112;8.648;2023-03-23T09:04:48;7.15;;;2.47;;
72261;SDS011;60173;52.112;8.648;2023-03-23T09:07:13;8.77;;;2.83;;
72261;SDS011;60173;52.112;8.648;2023-03-23T09:09:39;5.72;;;2.67;;
72261;SDS011;60173;52.112;8.648;2023-03-23T09:12:04;5.93;;;2.20;;
72261;SDS011;60173;52.112;8.648;2023-03-23T09:14:30;7.53;;;2.50;;
72261;SDS011;60173;52.112;8.648;2023-03-23T09:16:56;8.45;;;2.45;;
72261;SDS011;60173;52.112;8.648;2023-03-23T09:19:21;7.53;;;2.10;;
72261;SDS011;60173;52.112;8.648;2023-03-23T09:21:46;8.45;;;2.65;;
72261;SDS011;60173;52.112;8.648;2023-03-23T09:24:11;10.55;;;2.40;;
72261;SDS011;60173;52.112;8.648;2023-03-23T09:26:38;9.77;;;2.67;;
72261;SDS011;60173;52.112;8.648;2023-03-23T09:29:03;9.48;;;2.45;;
72261;SDS011;60173;52.112;8.648;2023-03-23T09:31:28;8.77;;;2.55;;
72261;SDS011;60173;52.112;8.648;2023-03-23T09:33:54;7.00;;;2.53;;
72261;SDS011;60173;52.112;8.648;2023-03-23T09:36:19;6.43;;;2.30;;
72261;SDS011;60173;52.112;8.648;2023-03-23T09:38:45;8.43;;;2.17;;
72261;SDS011;60173;52.112;8.648;2023-03-23T09:41:14;6.25;;;2.10;;
72261;SDS011;60173;52.112;8.648;2023-03-23T09:48:59;8.40;;;2.88;;
72261;SDS011;60173;52.112;8.648;2023-03-23T09:54:29;10.88;;;2.70;;
72261;SDS011;60173;52.112;8.648;2023-03-23T09:57:00;7.40;;;2.28;;
72261;SDS011;60173;52.112;8.648;2023-03-23T09:59:37;9.35;;;2.55;;
72261;SDS011;60173;52.112;8.648;2023-03-23T10:02:13;9.18;;;2.33;;
72261;SDS011;60173;52.112;8.648;2023-03-23T10:04:44;9.77;;;2.45;;
72261;SDS011;60173;52.112;8.648;2023-03-23T10:07:15;9.70;;;2.40;;
72261;SDS011;60173;52.112;8.648;2023-03-23T10:09:43;6.30;;;2.45;;
72261;SDS011;60173;52.112;8.648;2023-03-23T10:14:40;8.25;;;2.08;;
72261;SDS011;60173;52.112;8.648;2023-03-23T10:17:25;6.13;;;2.30;;
72261;SDS011;60173;52.112;8.648;2023-03-23T10:19:56;6.30;;;2.35;;
72261;SDS011;60173;52.112;8.648;2023-03-23T10:22:36;7.85;;;2.33;;
72261;SDS011;60173;52.112;8.648;2023-03-23T10:27:42;9.27;;;2.88;;
72261;SDS011;60173;52.112;8.648;2023-03-23T10:32:56;5.55;;;2.28;;
72261;SDS011;60173;52.112;8.648;2023-03-23T10:35:56;9.15;;;2.40;;
72261;SDS011;60173;52.112;8.648;2023-03-23T10:38:36;8.50;;;2.58;;
72261;SDS011;60173;52.112;8.648;2023-03-23T10:41:18;9.48;;;2.28;;
72261;SDS011;60173;52.112;8.648;2023-03-23T10:43:45;9.18;;;2.30;;
72261;SDS011;60173;52.112;8.648;2023-03-23T10:48:58;5.88;;;2.08;;
72261;SDS011;60173;52.112;8.648;2023-03-23T10:51:36;7.38;;;2.60;;
72261;SDS011;60173;52.112;8.648;2023-03-23T10:54:06;7.93;;;2.40;;
72261;SDS011;60173;52.112;8.648;2023-03-23T10:59:14;9.50;;;2.53;;
72261;SDS011;60173;52.112;8.648;2023-03-23T11:01:44;4.25;;;1.38;;
72261;SDS011;60173;52.112;8.648;2023-03-23T11:04:13;2.50;;;1.00;;
72261;SDS011;60173;52.112;8.648;2023-03-23T11:06:43;5.05;;;0.98;;
72261;SDS011;60173;52.112;8.648;2023-03-23T11:09:15;7.15;;;1.30;;
72261;SDS011;60173;52.112;8.648;2023-03-23T11:11:42;4.95;;;1.55;;
72261;SDS011;60173;52.112;8.648;2023-03-23T11:14:19;6.88;;;1.30;;
72261;SDS011;60173;52.112;8.648;2023-03-23T11:16:51;4.32;;;1.48;;
72261;SDS011;60173;52.112;8.648;2023-03-23T11:19:26;3.58;;;1.20;;
72261;SDS011;60173;52.112;8.648;2023-03-23T11:21:54;1.23;;;0.80;;
72261;SDS011;60173;52.112;8.648;2023-03-23T11:24:25;3.20;;;1.20;;
72261;SDS011;60173;52.112;8.648;2023-03-23T11:26:51;2.03;;;0.80;;
72261;SDS011;60173;52.112;8.648;2023-03-23T11:29:17;1.15;;;0.95;;
72261;SDS011;60173;52.112;8.648;2023-03-23T11:31:47;2.50;;;0.75;;
72261;SDS011;60173;52.112;8.648;2023-03-23T11:34:15;3.28;;;0.75;;
72261;SDS011;60173;52.112;8.648;2023-03-23T11:36:43;3.67;;;1.05;;
72261;SDS011;60173;52.112;8.648;2023-03-23T11:39:21;2.20;;;0.75;;
72261;SDS011;60173;52.112;8.648;2023-03-23T11:41:47;2.88;;;1.05;;
72261;SDS011;60173;52.112;8.648;2023-03-23T11:44:12;3.72;;;0.88;;
72261;SDS011;60173;52.112;8.648;2023-03-23T11:46:39;2.80;;;0.80;;
72261;SDS011;60173;52.112;8.648;2023-03-23T11:49:15;3.77;;;0.90;;
72261;SDS011;60173;52.112;8.648;2023-03-23T11:51:51;3.47;;;0.88;;
72261;SDS011;60173;52.112;8.648;2023-03-23T11:54:34;1.87;;;0.80;;
72261;SDS011;60173;52.112;8.648;2023-03-23T11:57:05;2.28;;;0.95;;
72261;SDS011;60173;52.112;8.648;2023-03-23T11:59:35;2.75;;;1.05;;
72261;SDS011;60173;52.112;8.648;2023-03-23T12:02:16;2.83;;;1.00;;
72261;SDS011;60173;52.112;8.648;2023-03-23T12:04:56;4.05;;;1.10;;
72261;SDS011;60173;52.112;8.648;2023-03-23T12:07:46;3.35;;;0.90;;
72261;SDS011;60173;52.112;8.648;2023-03-23T12:12:58;3.83;;;1.00;;
72261;SDS011;60173;52.112;8.648;2023-03-23T12:15:35;2.08;;;0.80;;
72261;SDS011;60173;52.112;8.648;2023-03-23T12:26:31;4.57;;;1.17;;
72261;SDS011;60173;52.112;8.648;2023-03-23T12:29:04;3.70;;;1.10;;
72261;SDS011;60173;52.112;8.648;2023-03-23T12:37:29;5.07;;;1.37;;
72261;SDS011;60173;52.112;8.648;2023-03-23T12:40:07;2.85;;;0.95;;
72261;SDS011;60173;52.112;8.648;2023-03-23T12:48:33;5.18;;;1.08;;
72261;SDS011;60173;52.112;8.648;2023-03-23T12:51:05;3.28;;;1.38;;
72261;SDS011;60173;52.112;8.648;2023-03-23T12:53:52;3.28;;;1.30;;
72261;SDS011;60173;52.112;8.648;2023-03-23T12:56:37;3.08;;;1.02;;
72261;SDS011;60173;52.112;8.648;2023-03-23T12:59:13;4.68;;;1.35;;
72261;SDS011;60173;52.112;8.648;2023-03-23T13:01:42;3.38;;;1.50;;
72261;SDS011;60173;52.112;8.648;2023-03-23T13:07:10;3.55;;;1.27;;
72261;SDS011;60173;52.112;8.648;2023-03-23T13:12:26;3.15;;;1.00;;
72261;SDS011;60173;52.112;8.648;2023-03-23T13:20:45;2.80;;;1.00;;
72261;SDS011;60173;52.112;8.648;2023-03-23T13:23:21;3.45;;;1.25;;
72261;SDS011;60173;52.112;8.648;2023-03-23T13:26:08;3.92;;;1.42;;
72261;SDS011;60173;52.112;8.648;2023-03-23T13:28:55;2.25;;;0.90;;
72261;SDS011;60173;52.112;8.648;2023-03-23T13:31:27;3.38;;;0.90;;
72261;SDS011;60173;52.112;8.648;2023-03-23T13:33:53;3.35;;;0.90;;
72261;SDS011;60173;52.112;8.648;2023-03-23T13:36:39;3.17;;;1.10;;
72261;SDS011;60173;52.112;8.648;2023-03-23T13:39:17;3.72;;;1.40;;
72261;SDS011;60173;52.112;8.648;2023-03-23T13:41:46;2.78;;;1.20;;
72261;SDS011;60173;52.112;8.648;2023-03-23T13:44:17;3.28;;;1.38;;
72261;SDS011;60173;52.112;8.648;2023-03-23T13:46:53;3.88;;;1.40;;
72261;SDS011;60173;52.112;8.648;2023-03-23T13:49:51;2.47;;;1.27;;
72261;SDS011;60173;52.112;8.648;2023-03-23T13:52:21;3.58;;;1.33;;
72261;SDS011;60173;52.112;8.648;2023-03-23T13:54:49;3.97;;;1.23;;
72261;SDS011;60173;52.112;8.648;2023-03-23T13:57:26;4.03;;;1.20;;
72261;SDS011;60173;52.112;8.648;2023-03-23T14:00:04;2.55;;;1.13;;
72261;SDS011;60173;52.112;8.648;2023-03-23T14:03:00;2.33;;;1.30;;
72261;SDS011;60173;52.112;8.648;2023-03-23T14:05:30;2.95;;;0.93;;
72261;SDS011;60173;52.112;8.648;2023-03-23T14:07:59;2.00;;;1.30;;
72261;SDS011;60173;52.112;8.648;2023-03-23T14:13:04;3.38;;;1.30;;
72261;SDS011;60173;52.112;8.648;2023-03-23T14:15:40;2.38;;;1.20;;
72261;SDS011;60173;52.112;8.648;2023-03-23T14:18:18;3.20;;;1.23;;
72261;SDS011;60173;52.112;8.648;2023-03-23T14:20:45;1.98;;;1.20;;
72261;SDS011;60173;52.112;8.648;2023-03-23T14:23:14;2.35;;;1.25;;
72261;SDS011;60173;52.112;8.648;2023-03-23T14:25:41;1.75;;;1.40;;
72261;SDS011;60173;52.112;8.648;2023-03-23T14:28:16;2.72;;;1.77;;
72261;SDS011;60173;52.112;8.648;2023-03-23T14:30:43;3.53;;;2.22;;
72261;SDS011;60173;52.112;8.648;2023-03-23T14:33:09;2.88;;;1.80;;
72261;SDS011;60173;52.112;8.648;2023-03-23T14:35:38;4.45;;;2.10;;
72261;SDS011;60173;52.112;8.648;2023-03-23T14:38:11;2.05;;;1.90;;
72261;SDS011;60173;52.112;8.648;2023-03-23T14:40:40;3.67;;;1.85;;
72261;SDS011;60173;52.112;8.648;2023-03-23T14:43:07;2.63;;;1.80;;
72261;SDS011;60173;52.112;8.648;2023-03-23T14:45:35;6.60;;;2.58;;
72261;SDS011;60173;52.112;8.648;2023-03-23T14:48:01;3.35;;;2.40;;
72261;SDS011;60173;52.112;8.648;2023-03-23T14:50:29;4.20;;;2.72;;
72261;SDS011;60173;52.112;8.648;2023-03-23T14:53:23;5.38;;;2.97;;
72261;SDS011;60173;52.112;8.648;2023-03-23T14:55:54;5.78;;;3.35;;
72261;SDS011;60173;52.112;8.648;2023-03-23T14:58:20;6.22;;;3.13;;
72261;SDS011;60173;52.112;8.648;2023-03-23T15:00:51;7.18;;;3.40;;
72261;SDS011;60173;52.112;8.648;2023-03-23T15:03:20;4.20;;;3.45;;
72261;SDS011;60173;52.112;8.648;2023-03-23T15:05:52;5.82;;;3.10;;
72261;SDS011;60173;52.112;8.648;2023-03-23T15:08:25;6.43;;;3.03;;
72261;SDS011;60173;52.112;8.648;2023-03-23T15:10:53;5.63;;;3.33;;
72261;SDS011;60173;52.112;8.648;2023-03-23T15:13:21;4.00;;;2.92;;
72261;SDS011;60173;52.112;8.648;2023-03-23T15:15:46;8.15;;;3.70;;
72261;SDS011;60173;52.112;8.648;2023-03-23T15:18:22;5.20;;;3.53;;
72261;SDS011;60173;52.112;8.648;2023-03-23T15:20:54;7.78;;;3.47;;
72261;SDS011;60173;52.112;8.648;2023-03-23T15:23:27;5.32;;;3.50;;
72261;SDS011;60173;52.112;8.648;2023-03-23T15:25:54;4.55;;;3.58;;
72261;SDS011;60173;52.112;8.648;2023-03-23T15:28:22;6.30;;;3.67;;
72261;SDS011;60173;52.112;8.648;2023-03-23T15:30:55;4.30;;;3.33;;
72261;SDS011;60173;52.112;8.648;2023-03-23T15:33:22;7.28;;;4.05;;
72261;SDS011;60173;52.112;8.648;2023-03-23T15:35:48;6.00;;;3.60;;
72261;SDS011;60173;52.112;8.648;2023-03-23T15:40:48;5.47;;;3.28;;
72261;SDS011;60173;52.112;8.648;2023-03-23T15:43:16;5.43;;;3.63;;
72261;SDS011;60173;52.112;8.648;2023-03-23T15:48:33;8.63;;;3.00;;
72261;SDS011;60173;52.112;8.648;2023-03-23T15:51:11;6.03;;;3.20;;
72261;SDS011;60173;52.112;8.648;2023-03-23T15:53:37;6.38;;;3.13;;
72261;SDS011;60173;52.112;8.648;2023-03-23T15:56:03;6.38;;;3.17;;
72261;SDS011;60173;52.112;8.648;2023-03-23T15:58:30;4.85;;;2.80;;
72261;SDS011;60173;52.112;8.648;2023-03-23T16:00:58;5.22;;;2.80;;
72261;SDS011;60173;52.112;8.648;2023-03-23T16:03:31;4.50;;;2.80;;
72261;SDS011;60173;52.112;8.648;2023-03-23T16:06:03;5.18;;;3.03;;
72261;SDS011;60173;52.112;8.648;2023-03-23T16:08:29;6.13;;;2.95;;
72261;SDS011;60173;52.112;8.648;2023-03-23T16:10:55;9.02;;;4.15;;
72261;SDS011;60173;52.112;8.648;2023-03-23T16:13:22;6.40;;;2.90;;
72261;SDS011;60173;52.112;8.648;2023-03-23T16:15:48;6.32;;;3.03;;
72261;SDS011;60173;52.112;8.648;2023-03-23T16:18:16;7.15;;;3.03;;
72261;SDS011;60173;52.112;8.648;2023-03-23T16:20:44;5.88;;;3.38;;